sensor_id;sensor_type;location;lat;lon;timestamp;temperature;humidity
5150;DHT22;2593;52.466;13.436;2023-04-15T00:01:05;8.60;99.90
5150;DHT22;2593;52.466;13.436;2023-04-15T00:03:31;8.60;99.90
5150;DHT22;2593;52.466;13.436;2023-04-15T00:05:58;8.50;99.90
5150;DHT22;2593;52.466;13.436;2023-04-15T00:08:24;8.50;99.90
5150;DHT22;2593;52.466;13.436;2023-04-15T00:10:49;8.50;99.90
5150;DHT22;2593;52.466;13.436;2023-04-15T00:13:15;8.60;99.90
5150;DHT22;2593;52.466;13.436;2023-04-15T00:15:41;8.60;99.90
5150;DHT22;2593;52.466;13.436;2023-04-15T00:18:07;8.50;99.90
5150;DHT22;2593;52.466;13.436;2023-04-15T00:20:34;8.60;99.90
5150;DHT22;2593;52.466;13.436;2023-04-15T00:23:01;8.60;99.90
5150;DHT22;2593;52.466;13.436;2023-04-15T00:25:27;8.60;99.90
5150;DHT22;2593;52.466;13.436;2023-04-15T00:27:52;8.60;99.90
5150;DHT22;2593;52.466;13.436;2023-04-15T00:30:18;8.50;99.90
5150;DHT22;2593;52.466;13.436;2023-04-15T00:32:44;8.50;99.90
5150;DHT22;2593;52.466;13.436;2023-04-15T00:35:10;8.50;99.90
5150;DHT22;2593;52.466;13.436;2023-04-15T00:37:35;8.50;99.90
5150;DHT22;2593;52.466;13.436;2023-04-15T00:40:01;8.60;99.90
5150;DHT22;2593;52.466;13.436;2023-04-15T00:42:29;8.50;99.90
5150;DHT22;2593;52.466;13.436;2023-04-15T00:44:55;8.50;99.90
5150;DHT22;2593;52.466;13.436;2023-04-15T00:47:21;8.40;99.90
5150;DHT22;2593;52.466;13.436;2023-04-15T00:49:47;8.50;99.90
5150;DHT22;2593;52.466;13.436;2023-04-15T00:52:13;8.50;99.90
5150;DHT22;2593;52.466;13.436;2023-04-15T00:54:38;8.40;99.90
5150;DHT22;2593;52.466;13.436;2023-04-15T00:57:05;8.50;99.90
5150;DHT22;2593;52.466;13.436;2023-04-15T00:59:32;8.50;99.90
5150;DHT22;2593;52.466;13.436;2023-04-15T01:01:58;8.50;99.90
5150;DHT22;2593;52.466;13.436;2023-04-15T01:04:24;8.50;99.90
5150;DHT22;2593;52.466;13.436;2023-04-15T01:06:50;8.50;99.90
5150;DHT22;2593;52.466;13.436;2023-04-15T01:09:16;8.60;99.90
5150;DHT22;2593;52.466;13.436;2023-04-15T01:11:42;8.50;99.90
5150;DHT22;2593;52.466;13.436;2023-04-15T01:14:09;8.50;99.90
5150;DHT22;2593;52.466;13.436;2023-04-15T01:16:36;8.50;99.90
5150;DHT22;2593;52.466;13.436;2023-04-15T01:19:05;8.40;99.90
5150;DHT22;2593;52.466;13.436;2023-04-15T01:21:36;8.40;99.90
5150;DHT22;2593;52.466;13.436;2023-04-15T01:24:07;8.40;99.90
5150;DHT22;2593;52.466;13.436;2023-04-15T01:26:34;8.40;99.90
5150;DHT22;2593;52.466;13.436;2023-04-15T01:29:00;8.50;99.90
5150;DHT22;2593;52.466;13.436;2023-04-15T01:31:26;8.50;99.90
5150;DHT22;2593;52.466;13.436;2023-04-15T01:33:51;8.50;99.90
5150;DHT22;2593;52.466;13.436;2023-04-15T01:36:17;8.40;99.90
5150;DHT22;2593;52.466;13.436;2023-04-15T01:38:43;8.50;99.90
5150;DHT22;2593;52.466;13.436;2023-04-15T01:41:08;8.40;99.90
5150;DHT22;2593;52.466;13.436;2023-04-15T01:43:35;8.40;99.90
5150;DHT22;2593;52.466;13.436;2023-04-15T01:46:01;8.40;99.90
5150;DHT22;2593;52.466;13.436;2023-04-15T01:48:27;8.50;99.90
5150;DHT22;2593;52.466;13.436;2023-04-15T01:50:54;8.50;99.90
5150;DHT22;2593;52.466;13.436;2023-04-15T01:53:22;8.60;99.90
5150;DHT22;2593;52.466;13.436;2023-04-15T01:55:48;8.50;99.90
5150;DHT22;2593;52.466;13.436;2023-04-15T01:58:13;8.50;99.90
5150;DHT22;2593;52.466;13.436;2023-04-15T02:00:39;8.40;99.90
5150;DHT22;2593;52.466;13.436;2023-04-15T02:03:05;8.40;99.90
5150;DHT22;2593;52.466;13.436;2023-04-15T02:05:31;8.50;99.90
5150;DHT22;2593;52.466;13.436;2023-04-15T02:07:56;8.50;99.90
5150;DHT22;2593;52.466;13.436;2023-04-15T02:10:22;8.40;99.90
5150;DHT22;2593;52.466;13.436;2023-04-15T02:12:48;8.50;99.90
5150;DHT22;2593;52.466;13.436;2023-04-15T02:15:13;8.50;99.90
5150;DHT22;2593;52.466;13.436;2023-04-15T02:17:40;8.40;99.90
5150;DHT22;2593;52.466;13.436;2023-04-15T02:20:10;8.40;99.90
5150;DHT22;2593;52.466;13.436;2023-04-15T02:25:15;8.50;99.90
5150;DHT22;2593;52.466;13.436;2023-04-15T02:27:44;8.50;99.90
5150;DHT22;2593;52.466;13.436;2023-04-15T02:30:10;8.40;99.90
5150;DHT22;2593;52.466;13.436;2023-04-15T02:32:36;8.40;99.90
5150;DHT22;2593;52.466;13.436;2023-04-15T02:35:06;8.30;99.90
5150;DHT22;2593;52.466;13.436;2023-04-15T02:37:34;8.30;99.90
5150;DHT22;2593;52.466;13.436;2023-04-15T02:40:08;8.40;99.90
5150;DHT22;2593;52.466;13.436;2023-04-15T02:42:36;8.50;99.90
5150;DHT22;2593;52.466;13.436;2023-04-15T02:45:02;8.50;99.90
5150;DHT22;2593;52.466;13.436;2023-04-15T02:47:28;8.50;99.90
5150;DHT22;2593;52.466;13.436;2023-04-15T02:49:53;8.50;99.90
5150;DHT22;2593;52.466;13.436;2023-04-15T02:52:19;8.50;99.90
5150;DHT22;2593;52.466;13.436;2023-04-15T02:54:45;8.50;99.90
5150;DHT22;2593;52.466;13.436;2023-04-15T02:57:10;8.60;99.90
5150;DHT22;2593;52.466;13.436;2023-04-15T02:59:37;8.60;99.90
5150;DHT22;2593;52.466;13.436;2023-04-15T03:02:03;8.50;99.90
5150;DHT22;2593;52.466;13.436;2023-04-15T03:04:32;8.60;99.90
5150;DHT22;2593;52.466;13.436;2023-04-15T03:06:57;8.60;99.90
5150;DHT22;2593;52.466;13.436;2023-04-15T03:09:23;8.50;99.90
5150;DHT22;2593;52.466;13.436;2023-04-15T03:11:48;8.60;99.90
5150;DHT22;2593;52.466;13.436;2023-04-15T03:14:15;8.50;99.90
5150;DHT22;2593;52.466;13.436;2023-04-15T03:16:41;8.60;99.90
5150;DHT22;2593;52.466;13.436;2023-04-15T03:19:07;8.60;99.90
5150;DHT22;2593;52.466;13.436;2023-04-15T03:21:32;8.60;99.90
5150;DHT22;2593;52.466;13.436;2023-04-15T03:23:58;8.50;99.90
5150;DHT22;2593;52.466;13.436;2023-04-15T03:26:28;8.50;99.90
5150;DHT22;2593;52.466;13.436;2023-04-15T03:28:54;8.60;99.90
5150;DHT22;2593;52.466;13.436;2023-04-15T03:31:20;8.60;99.90
5150;DHT22;2593;52.466;13.436;2023-04-15T03:33:46;8.60;99.90
5150;DHT22;2593;52.466;13.436;2023-04-15T03:36:11;8.60;99.90
5150;DHT22;2593;52.466;13.436;2023-04-15T03:38:37;8.60;99.90
5150;DHT22;2593;52.466;13.436;2023-04-15T03:41:02;8.60;99.90
5150;DHT22;2593;52.466;13.436;2023-04-15T03:43:28;8.70;99.90
5150;DHT22;2593;52.466;13.436;2023-04-15T03:45:54;8.70;99.90
5150;DHT22;2593;52.466;13.436;2023-04-15T03:48:19;8.70;99.90
5150;DHT22;2593;52.466;13.436;2023-04-15T03:50:45;8.80;99.90
5150;DHT22;2593;52.466;13.436;2023-04-15T03:53:11;8.80;99.90
5150;DHT22;2593;52.466;13.436;2023-04-15T03:55:36;8.80;99.90
5150;DHT22;2593;52.466;13.436;2023-04-15T03:58:02;8.70;99.90
5150;DHT22;2593;52.466;13.436;2023-04-15T04:00:28;8.70;99.90
5150;DHT22;2593;52.466;13.436;2023-04-15T04:02:53;8.70;99.90
5150;DHT22;2593;52.466;13.436;2023-04-15T04:05:19;8.70;99.90
5150;DHT22;2593;52.466;13.436;2023-04-15T04:07:45;8.70;99.90
5150;DHT22;2593;52.466;13.436;2023-04-15T04:10:10;8.70;99.90
5150;DHT22;2593;52.466;13.436;2023-04-15T04:12:36;8.70;99.90
5150;DHT22;2593;52.466;13.436;2023-04-15T04:15:02;8.70;99.90
5150;DHT22;2593;52.466;13.436;2023-04-15T04:17:27;8.80;99.90
5150;DHT22;2593;52.466;13.436;2023-04-15T04:19:53;8.70;99.90
5150;DHT22;2593;52.466;13.436;2023-04-15T04:22:22;8.80;99.90
5150;DHT22;2593;52.466;13.436;2023-04-15T04:24:48;8.80;99.90
5150;DHT22;2593;52.466;13.436;2023-04-15T04:27:14;8.90;99.90
5150;DHT22;2593;52.466;13.436;2023-04-15T04:29:40;8.90;99.90
5150;DHT22;2593;52.466;13.436;2023-04-15T04:32:06;8.90;99.90
5150;DHT22;2593;52.466;13.436;2023-04-15T04:34:31;8.90;99.90
5150;DHT22;2593;52.466;13.436;2023-04-15T04:36:57;8.90;99.90
5150;DHT22;2593;52.466;13.436;2023-04-15T04:39:22;9.00;99.90
5150;DHT22;2593;52.466;13.436;2023-04-15T04:41:49;9.00;99.90
5150;DHT22;2593;52.466;13.436;2023-04-15T04:44:16;9.00;99.90
5150;DHT22;2593;52.466;13.436;2023-04-15T04:46:42;9.00;99.90
5150;DHT22;2593;52.466;13.436;2023-04-15T04:49:07;9.00;99.90
5150;DHT22;2593;52.466;13.436;2023-04-15T04:51:33;9.10;99.90
5150;DHT22;2593;52.466;13.436;2023-04-15T04:53:59;9.10;99.90
5150;DHT22;2593;52.466;13.436;2023-04-15T04:56:24;9.10;99.90
5150;DHT22;2593;52.466;13.436;2023-04-15T04:58:50;9.10;99.90
5150;DHT22;2593;52.466;13.436;2023-04-15T05:01:16;9.10;99.90
5150;DHT22;2593;52.466;13.436;2023-04-15T05:03:42;9.10;99.90
5150;DHT22;2593;52.466;13.436;2023-04-15T05:06:07;9.20;99.90
5150;DHT22;2593;52.466;13.436;2023-04-15T05:08:33;9.10;99.90
5150;DHT22;2593;52.466;13.436;2023-04-15T05:10:59;9.20;99.90
5150;DHT22;2593;52.466;13.436;2023-04-15T05:13:25;9.20;99.90
5150;DHT22;2593;52.466;13.436;2023-04-15T05:15:50;9.20;99.90
5150;DHT22;2593;52.466;13.436;2023-04-15T05:18:16;9.10;99.90
5150;DHT22;2593;52.466;13.436;2023-04-15T05:20:42;9.20;99.90
5150;DHT22;2593;52.466;13.436;2023-04-15T05:23:07;9.20;99.90
5150;DHT22;2593;52.466;13.436;2023-04-15T05:25:33;9.10;99.90
5150;DHT22;2593;52.466;13.436;2023-04-15T05:27:59;9.20;99.90
5150;DHT22;2593;52.466;13.436;2023-04-15T05:30:25;9.20;99.90
5150;DHT22;2593;52.466;13.436;2023-04-15T05:32:51;9.20;99.90
5150;DHT22;2593;52.466;13.436;2023-04-15T05:35:16;9.20;99.90
5150;DHT22;2593;52.466;13.436;2023-04-15T05:37:42;9.20;99.90
5150;DHT22;2593;52.466;13.436;2023-04-15T05:40:08;9.20;99.90
5150;DHT22;2593;52.466;13.436;2023-04-15T05:42:35;9.20;99.90
5150;DHT22;2593;52.466;13.436;2023-04-15T05:45:01;9.30;99.90
5150;DHT22;2593;52.466;13.436;2023-04-15T05:47:29;9.30;99.90
5150;DHT22;2593;52.466;13.436;2023-04-15T05:49:55;9.30;99.90
5150;DHT22;2593;52.466;13.436;2023-04-15T05:52:23;9.40;99.90
5150;DHT22;2593;52.466;13.436;2023-04-15T05:54:49;9.40;99.90
5150;DHT22;2593;52.466;13.436;2023-04-15T05:57:15;9.50;99.90
5150;DHT22;2593;52.466;13.436;2023-04-15T05:59:40;9.50;99.90
5150;DHT22;2593;52.466;13.436;2023-04-15T06:02:07;9.50;99.90
5150;DHT22;2593;52.466;13.436;2023-04-15T06:04:34;9.50;99.90
5150;DHT22;2593;52.466;13.436;2023-04-15T06:06:59;9.50;99.90
5150;DHT22;2593;52.466;13.436;2023-04-15T06:09:25;9.60;99.90
5150;DHT22;2593;52.466;13.436;2023-04-15T06:11:51;9.60;99.90
5150;DHT22;2593;52.466;13.436;2023-04-15T06:14:17;9.70;99.90
5150;DHT22;2593;52.466;13.436;2023-04-15T06:16:42;9.60;99.90
5150;DHT22;2593;52.466;13.436;2023-04-15T06:19:08;9.60;99.90
5150;DHT22;2593;52.466;13.436;2023-04-15T06:21:34;9.60;99.90
5150;DHT22;2593;52.466;13.436;2023-04-15T06:23:59;9.60;99.90
5150;DHT22;2593;52.466;13.436;2023-04-15T06:26:26;9.70;99.90
5150;DHT22;2593;52.466;13.436;2023-04-15T06:28:52;9.70;99.90
5150;DHT22;2593;52.466;13.436;2023-04-15T06:31:18;9.70;99.90
5150;DHT22;2593;52.466;13.436;2023-04-15T06:33:43;9.80;99.90
5150;DHT22;2593;52.466;13.436;2023-04-15T06:36:10;9.80;99.90
5150;DHT22;2593;52.466;13.436;2023-04-15T06:38:35;9.90;99.90
5150;DHT22;2593;52.466;13.436;2023-04-15T06:41:02;9.90;99.90
5150;DHT22;2593;52.466;13.436;2023-04-15T06:43:28;9.90;99.90
5150;DHT22;2593;52.466;13.436;2023-04-15T06:45:54;9.90;99.90
5150;DHT22;2593;52.466;13.436;2023-04-15T06:48:21;10.00;99.90
5150;DHT22;2593;52.466;13.436;2023-04-15T06:50:47;10.10;99.90
5150;DHT22;2593;52.466;13.436;2023-04-15T06:53:13;10.20;99.90
5150;DHT22;2593;52.466;13.436;2023-04-15T06:55:38;10.30;99.90
5150;DHT22;2593;52.466;13.436;2023-04-15T06:58:04;10.50;99.90
5150;DHT22;2593;52.466;13.436;2023-04-15T07:00:30;10.60;99.90
5150;DHT22;2593;52.466;13.436;2023-04-15T07:02:58;10.70;99.90
5150;DHT22;2593;52.466;13.436;2023-04-15T07:05:25;10.70;99.90
5150;DHT22;2593;52.466;13.436;2023-04-15T07:07:50;10.80;99.90
5150;DHT22;2593;52.466;13.436;2023-04-15T07:10:17;10.80;99.90
5150;DHT22;2593;52.466;13.436;2023-04-15T07:12:43;10.60;99.90
5150;DHT22;2593;52.466;13.436;2023-04-15T07:15:09;10.60;99.90
5150;DHT22;2593;52.466;13.436;2023-04-15T07:17:35;10.60;99.90
5150;DHT22;2593;52.466;13.436;2023-04-15T07:20:01;10.70;99.90
5150;DHT22;2593;52.466;13.436;2023-04-15T07:22:27;10.80;99.90
5150;DHT22;2593;52.466;13.436;2023-04-15T07:24:53;10.60;99.90
5150;DHT22;2593;52.466;13.436;2023-04-15T07:27:18;10.50;99.90
5150;DHT22;2593;52.466;13.436;2023-04-15T07:29:44;10.50;99.90
5150;DHT22;2593;52.466;13.436;2023-04-15T07:32:10;10.40;99.90
5150;DHT22;2593;52.466;13.436;2023-04-15T07:34:35;10.30;99.90
5150;DHT22;2593;52.466;13.436;2023-04-15T07:37:02;10.20;99.90
5150;DHT22;2593;52.466;13.436;2023-04-15T07:39:27;10.30;99.90
5150;DHT22;2593;52.466;13.436;2023-04-15T07:41:54;10.30;99.90
5150;DHT22;2593;52.466;13.436;2023-04-15T07:44:20;10.40;99.90
5150;DHT22;2593;52.466;13.436;2023-04-15T07:46:46;10.40;99.90
5150;DHT22;2593;52.466;13.436;2023-04-15T07:49:12;10.30;99.90
5150;DHT22;2593;52.466;13.436;2023-04-15T07:51:38;10.20;99.90
5150;DHT22;2593;52.466;13.436;2023-04-15T07:54:04;10.10;99.90
5150;DHT22;2593;52.466;13.436;2023-04-15T07:56:30;10.00;99.90
5150;DHT22;2593;52.466;13.436;2023-04-15T07:58:55;10.00;99.90
5150;DHT22;2593;52.466;13.436;2023-04-15T08:01:21;10.10;99.90
5150;DHT22;2593;52.466;13.436;2023-04-15T08:03:47;10.10;99.90
5150;DHT22;2593;52.466;13.436;2023-04-15T08:06:12;10.00;99.90
5150;DHT22;2593;52.466;13.436;2023-04-15T08:08:38;9.90;99.90
5150;DHT22;2593;52.466;13.436;2023-04-15T08:11:04;9.90;99.90
5150;DHT22;2593;52.466;13.436;2023-04-15T08:13:30;9.90;99.90
5150;DHT22;2593;52.466;13.436;2023-04-15T08:16:18;10.00;99.90
5150;DHT22;2593;52.466;13.436;2023-04-15T08:18:44;10.00;99.90
5150;DHT22;2593;52.466;13.436;2023-04-15T08:21:10;9.90;99.90
5150;DHT22;2593;52.466;13.436;2023-04-15T08:23:36;9.90;99.90
5150;DHT22;2593;52.466;13.436;2023-04-15T08:26:03;9.90;99.90
5150;DHT22;2593;52.466;13.436;2023-04-15T08:28:29;9.90;99.90
5150;DHT22;2593;52.466;13.436;2023-04-15T08:30:55;10.00;99.90
5150;DHT22;2593;52.466;13.436;2023-04-15T08:33:20;9.90;99.90
5150;DHT22;2593;52.466;13.436;2023-04-15T08:35:48;10.00;99.90
5150;DHT22;2593;52.466;13.436;2023-04-15T08:38:13;10.10;99.90
5150;DHT22;2593;52.466;13.436;2023-04-15T08:40:43;10.10;99.90
5150;DHT22;2593;52.466;13.436;2023-04-15T08:43:12;10.20;99.90
5150;DHT22;2593;52.466;13.436;2023-04-15T08:45:40;10.20;99.90
5150;DHT22;2593;52.466;13.436;2023-04-15T08:48:08;10.20;99.90
5150;DHT22;2593;52.466;13.436;2023-04-15T08:50:38;10.20;99.90
5150;DHT22;2593;52.466;13.436;2023-04-15T08:53:05;10.10;99.90
5150;DHT22;2593;52.466;13.436;2023-04-15T08:55:32;10.10;99.90
5150;DHT22;2593;52.466;13.436;2023-04-15T08:58:01;10.10;99.90
5150;DHT22;2593;52.466;13.436;2023-04-15T09:00:28;10.10;99.90
5150;DHT22;2593;52.466;13.436;2023-04-15T09:02:55;10.00;99.90
5150;DHT22;2593;52.466;13.436;2023-04-15T09:05:21;10.20;99.90
5150;DHT22;2593;52.466;13.436;2023-04-15T09:07:49;10.30;99.90
5150;DHT22;2593;52.466;13.436;2023-04-15T09:10:14;10.50;99.90
5150;DHT22;2593;52.466;13.436;2023-04-15T09:12:40;10.50;99.90
5150;DHT22;2593;52.466;13.436;2023-04-15T09:15:11;10.50;99.90
5150;DHT22;2593;52.466;13.436;2023-04-15T09:17:44;10.60;99.90
5150;DHT22;2593;52.466;13.436;2023-04-15T09:20:12;10.50;99.90
5150;DHT22;2593;52.466;13.436;2023-04-15T09:22:40;10.60;99.90
5150;DHT22;2593;52.466;13.436;2023-04-15T09:27:48;10.60;99.90
5150;DHT22;2593;52.466;13.436;2023-04-15T09:30:14;10.40;99.90
5150;DHT22;2593;52.466;13.436;2023-04-15T09:32:52;10.30;99.90
5150;DHT22;2593;52.466;13.436;2023-04-15T09:35:19;10.30;99.90
5150;DHT22;2593;52.466;13.436;2023-04-15T09:37:45;10.20;99.90
5150;DHT22;2593;52.466;13.436;2023-04-15T09:40:12;10.20;99.90
5150;DHT22;2593;52.466;13.436;2023-04-15T09:42:54;10.30;99.90
5150;DHT22;2593;52.466;13.436;2023-04-15T09:45:20;10.20;99.90
5150;DHT22;2593;52.466;13.436;2023-04-15T09:47:46;10.20;99.90
5150;DHT22;2593;52.466;13.436;2023-04-15T09:50:12;10.20;99.90
5150;DHT22;2593;52.466;13.436;2023-04-15T09:52:42;10.30;99.90
5150;DHT22;2593;52.466;13.436;2023-04-15T09:55:09;10.20;99.90
5150;DHT22;2593;52.466;13.436;2023-04-15T09:57:36;10.20;99.90
5150;DHT22;2593;52.466;13.436;2023-04-15T10:00:05;10.20;99.90
5150;DHT22;2593;52.466;13.436;2023-04-15T10:02:33;10.30;99.90
5150;DHT22;2593;52.466;13.436;2023-04-15T10:05:01;10.30;99.90
5150;DHT22;2593;52.466;13.436;2023-04-15T10:07:26;10.20;99.90
5150;DHT22;2593;52.466;13.436;2023-04-15T10:09:52;10.30;99.90
5150;DHT22;2593;52.466;13.436;2023-04-15T10:12:19;10.30;99.90
5150;DHT22;2593;52.466;13.436;2023-04-15T10:14:51;10.20;99.90
5150;DHT22;2593;52.466;13.436;2023-04-15T10:17:21;10.30;99.90
5150;DHT22;2593;52.466;13.436;2023-04-15T10:19:47;10.30;99.90
5150;DHT22;2593;52.466;13.436;2023-04-15T10:22:14;10.30;99.90
5150;DHT22;2593;52.466;13.436;2023-04-15T10:24:40;10.30;99.90
5150;DHT22;2593;52.466;13.436;2023-04-15T10:27:07;10.30;99.90
5150;DHT22;2593;52.466;13.436;2023-04-15T10:29:33;10.30;99.90
5150;DHT22;2593;52.466;13.436;2023-04-15T10:32:00;10.40;99.90
5150;DHT22;2593;52.466;13.436;2023-04-15T10:34:26;10.30;99.90
5150;DHT22;2593;52.466;13.436;2023-04-15T10:36:57;10.30;99.90
5150;DHT22;2593;52.466;13.436;2023-04-15T10:39:44;10.30;99.90
5150;DHT22;2593;52.466;13.436;2023-04-15T10:42:11;10.20;99.90
5150;DHT22;2593;52.466;13.436;2023-04-15T10:44:38;10.10;99.90
5150;DHT22;2593;52.466;13.436;2023-04-15T10:47:13;10.10;99.90
5150;DHT22;2593;52.466;13.436;2023-04-15T10:49:47;10.00;99.90
5150;DHT22;2593;52.466;13.436;2023-04-15T10:52:15;10.00;99.90
5150;DHT22;2593;52.466;13.436;2023-04-15T10:54:42;9.90;99.90
5150;DHT22;2593;52.466;13.436;2023-04-15T10:57:08;10.00;99.90
5150;DHT22;2593;52.466;13.436;2023-04-15T10:59:59;10.00;99.90
5150;DHT22;2593;52.466;13.436;2023-04-15T11:05:03;10.00;99.90
5150;DHT22;2593;52.466;13.436;2023-04-15T11:15:39;10.00;99.90
5150;DHT22;2593;52.466;13.436;2023-04-15T11:18:24;10.10;99.90
5150;DHT22;2593;52.466;13.436;2023-04-15T11:20:52;10.10;99.90
5150;DHT22;2593;52.466;13.436;2023-04-15T11:23:32;10.10;99.90
5150;DHT22;2593;52.466;13.436;2023-04-15T11:25:59;10.00;99.90
5150;DHT22;2593;52.466;13.436;2023-04-15T11:28:26;10.10;99.90
5150;DHT22;2593;52.466;13.436;2023-04-15T11:30:52;10.10;99.90
5150;DHT22;2593;52.466;13.436;2023-04-15T11:33:20;10.20;99.90
5150;DHT22;2593;52.466;13.436;2023-04-15T11:35:46;10.10;99.90
5150;DHT22;2593;52.466;13.436;2023-04-15T11:38:13;10.10;99.90
5150;DHT22;2593;52.466;13.436;2023-04-15T11:40:40;10.20;99.90
5150;DHT22;2593;52.466;13.436;2023-04-15T11:43:08;10.20;99.90
5150;DHT22;2593;52.466;13.436;2023-04-15T11:45:43;10.20;99.90
5150;DHT22;2593;52.466;13.436;2023-04-15T11:48:12;10.20;99.90
5150;DHT22;2593;52.466;13.436;2023-04-15T11:50:39;10.20;99.90
5150;DHT22;2593;52.466;13.436;2023-04-15T11:53:07;10.30;99.90
5150;DHT22;2593;52.466;13.436;2023-04-15T11:55:47;10.30;99.90
5150;DHT22;2593;52.466;13.436;2023-04-15T11:58:13;10.30;99.90
5150;DHT22;2593;52.466;13.436;2023-04-15T12:00:44;10.30;99.90
5150;DHT22;2593;52.466;13.436;2023-04-15T12:03:27;10.20;99.90
5150;DHT22;2593;52.466;13.436;2023-04-15T12:06:11;10.20;99.90
5150;DHT22;2593;52.466;13.436;2023-04-15T12:09:16;10.20;99.90
5150;DHT22;2593;52.466;13.436;2023-04-15T12:14:29;10.10;99.90
5150;DHT22;2593;52.466;13.436;2023-04-15T12:16:57;10.10;99.90
5150;DHT22;2593;52.466;13.436;2023-04-15T12:19:26;10.10;99.90
5150;DHT22;2593;52.466;13.436;2023-04-15T12:22:14;10.20;99.90
5150;DHT22;2593;52.466;13.436;2023-04-15T12:24:41;10.30;99.90
5150;DHT22;2593;52.466;13.436;2023-04-15T12:27:10;10.30;99.90
5150;DHT22;2593;52.466;13.436;2023-04-15T12:29:37;10.40;99.90
5150;DHT22;2593;52.466;13.436;2023-04-15T12:32:07;10.50;99.90
5150;DHT22;2593;52.466;13.436;2023-04-15T12:34:37;10.50;99.90
5150;DHT22;2593;52.466;13.436;2023-04-15T12:37:06;10.50;99.90
5150;DHT22;2593;52.466;13.436;2023-04-15T12:39:35;10.50;99.90
5150;DHT22;2593;52.466;13.436;2023-04-15T12:42:03;10.50;99.90
5150;DHT22;2593;52.466;13.436;2023-04-15T12:44:28;10.50;99.90
5150;DHT22;2593;52.466;13.436;2023-04-15T12:46:55;10.40;99.90
5150;DHT22;2593;52.466;13.436;2023-04-15T12:49:22;10.40;99.90
5150;DHT22;2593;52.466;13.436;2023-04-15T12:51:49;10.40;99.90
5150;DHT22;2593;52.466;13.436;2023-04-15T12:54:16;10.40;99.90
5150;DHT22;2593;52.466;13.436;2023-04-15T12:56:43;10.40;99.90
5150;DHT22;2593;52.466;13.436;2023-04-15T12:59:08;10.50;99.90
5150;DHT22;2593;52.466;13.436;2023-04-15T13:01:34;10.50;99.90
5150;DHT22;2593;52.466;13.436;2023-04-15T13:04:00;10.50;99.90
5150;DHT22;2593;52.466;13.436;2023-04-15T13:06:26;10.50;99.90
5150;DHT22;2593;52.466;13.436;2023-04-15T13:08:51;10.50;99.90
5150;DHT22;2593;52.466;13.436;2023-04-15T13:11:20;10.50;99.90
5150;DHT22;2593;52.466;13.436;2023-04-15T13:13:45;10.50;99.90
5150;DHT22;2593;52.466;13.436;2023-04-15T13:16:11;10.60;99.90
5150;DHT22;2593;52.466;13.436;2023-04-15T13:18:37;10.60;99.90
5150;DHT22;2593;52.466;13.436;2023-04-15T13:21:02;10.60;99.90
5150;DHT22;2593;52.466;13.436;2023-04-15T13:23:28;10.70;99.90
5150;DHT22;2593;52.466;13.436;2023-04-15T13:25:54;10.70;99.90
5150;DHT22;2593;52.466;13.436;2023-04-15T13:28:20;10.70;99.90
5150;DHT22;2593;52.466;13.436;2023-04-15T13:30:45;10.80;99.90
5150;DHT22;2593;52.466;13.436;2023-04-15T13:33:13;10.80;99.90
5150;DHT22;2593;52.466;13.436;2023-04-15T13:35:39;10.80;99.90
5150;DHT22;2593;52.466;13.436;2023-04-15T13:38:05;10.80;99.90
5150;DHT22;2593;52.466;13.436;2023-04-15T13:40:30;10.90;99.90
5150;DHT22;2593;52.466;13.436;2023-04-15T13:42:56;10.90;99.90
5150;DHT22;2593;52.466;13.436;2023-04-15T13:45:23;10.90;99.90
5150;DHT22;2593;52.466;13.436;2023-04-15T13:47:48;10.90;99.90
5150;DHT22;2593;52.466;13.436;2023-04-15T13:50:14;10.90;99.90
5150;DHT22;2593;52.466;13.436;2023-04-15T13:52:39;10.80;99.90
5150;DHT22;2593;52.466;13.436;2023-04-15T13:55:06;10.90;99.90
5150;DHT22;2593;52.466;13.436;2023-04-15T13:57:31;10.90;99.90
5150;DHT22;2593;52.466;13.436;2023-04-15T13:59:57;10.90;99.90
5150;DHT22;2593;52.466;13.436;2023-04-15T14:02:23;10.80;99.90
5150;DHT22;2593;52.466;13.436;2023-04-15T14:04:48;10.70;99.90
5150;DHT22;2593;52.466;13.436;2023-04-15T14:07:14;10.60;99.90
5150;DHT22;2593;52.466;13.436;2023-04-15T14:09:40;10.60;99.90
5150;DHT22;2593;52.466;13.436;2023-04-15T14:12:06;10.60;99.90
5150;DHT22;2593;52.466;13.436;2023-04-15T14:14:32;10.60;99.90
5150;DHT22;2593;52.466;13.436;2023-04-15T14:16:57;10.50;99.90
5150;DHT22;2593;52.466;13.436;2023-04-15T14:19:23;10.60;99.90
5150;DHT22;2593;52.466;13.436;2023-04-15T14:21:49;10.50;99.90
5150;DHT22;2593;52.466;13.436;2023-04-15T14:24:15;10.50;99.90
5150;DHT22;2593;52.466;13.436;2023-04-15T14:26:42;10.60;99.90
5150;DHT22;2593;52.466;13.436;2023-04-15T14:29:09;10.60;99.90
5150;DHT22;2593;52.466;13.436;2023-04-15T14:31:34;10.60;99.90
5150;DHT22;2593;52.466;13.436;2023-04-15T14:34:00;10.70;99.90
5150;DHT22;2593;52.466;13.436;2023-04-15T14:36:26;10.70;99.90
5150;DHT22;2593;52.466;13.436;2023-04-15T14:38:52;10.70;99.90
5150;DHT22;2593;52.466;13.436;2023-04-15T14:41:17;10.60;99.90
5150;DHT22;2593;52.466;13.436;2023-04-15T14:43:43;10.70;99.90
5150;DHT22;2593;52.466;13.436;2023-04-15T14:46:10;10.50;99.90
5150;DHT22;2593;52.466;13.436;2023-04-15T14:48:35;10.50;99.90
5150;DHT22;2593;52.466;13.436;2023-04-15T14:51:01;10.50;99.90
5150;DHT22;2593;52.466;13.436;2023-04-15T14:53:27;10.50;99.90
5150;DHT22;2593;52.466;13.436;2023-04-15T14:55:52;10.50;99.90
5150;DHT22;2593;52.466;13.436;2023-04-15T14:58:18;10.50;99.90
5150;DHT22;2593;52.466;13.436;2023-04-15T15:00:44;10.40;99.90
5150;DHT22;2593;52.466;13.436;2023-04-15T15:03:10;10.40;99.90
5150;DHT22;2593;52.466;13.436;2023-04-15T15:05:40;10.40;99.90
5150;DHT22;2593;52.466;13.436;2023-04-15T15:08:07;10.40;99.90
5150;DHT22;2593;52.466;13.436;2023-04-15T15:10:34;10.30;99.90
5150;DHT22;2593;52.466;13.436;2023-04-15T15:13:01;10.30;99.90
5150;DHT22;2593;52.466;13.436;2023-04-15T15:15:26;10.30;99.90
5150;DHT22;2593;52.466;13.436;2023-04-15T15:17:52;10.30;99.90
5150;DHT22;2593;52.466;13.436;2023-04-15T15:20:18;10.40;99.90
5150;DHT22;2593;52.466;13.436;2023-04-15T15:22:44;10.40;99.90
5150;DHT22;2593;52.466;13.436;2023-04-15T15:25:10;10.40;99.90
5150;DHT22;2593;52.466;13.436;2023-04-15T15:27:35;10.50;99.90
5150;DHT22;2593;52.466;13.436;2023-04-15T15:30:02;10.50;99.90
5150;DHT22;2593;52.466;13.436;2023-04-15T15:32:27;10.50;99.90
5150;DHT22;2593;52.466;13.436;2023-04-15T15:34:53;10.50;99.90
5150;DHT22;2593;52.466;13.436;2023-04-15T15:37:19;10.50;99.90
5150;DHT22;2593;52.466;13.436;2023-04-15T15:39:45;10.50;99.90
5150;DHT22;2593;52.466;13.436;2023-04-15T15:42:11;10.50;99.90
5150;DHT22;2593;52.466;13.436;2023-04-15T15:44:36;10.50;99.90
5150;DHT22;2593;52.466;13.436;2023-04-15T15:47:04;10.60;99.90
5150;DHT22;2593;52.466;13.436;2023-04-15T15:49:30;10.60;99.90
5150;DHT22;2593;52.466;13.436;2023-04-15T15:51:56;10.60;99.90
5150;DHT22;2593;52.466;13.436;2023-04-15T15:54:23;10.60;99.90
5150;DHT22;2593;52.466;13.436;2023-04-15T15:56:48;10.60;99.90
5150;DHT22;2593;52.466;13.436;2023-04-15T15:59:14;10.60;99.90
5150;DHT22;2593;52.466;13.436;2023-04-15T16:01:40;10.70;99.90
5150;DHT22;2593;52.466;13.436;2023-04-15T16:04:06;10.60;99.90
5150;DHT22;2593;52.466;13.436;2023-04-15T16:06:31;10.60;99.90
5150;DHT22;2593;52.466;13.436;2023-04-15T16:08:57;10.60;99.90